Time;durP1;ratioP1;P1;durP2;ratioP2;P2;SDS_P1;SDS_P2;PMS_P1;PMS_P2;Temp;Humidity;BMP_temperature;BMP_pressure;BME280_temperature;BME280_humidity;BME280_pressure;Samples;Min_cycle;Max_cycle;Signal;HPM_P1;HPM_P2
2022/10/28 00:02:31;;;;;;;11.90;3.92;;;;;;;;;;4973800;28;20038;-79
2022/10/28 00:05:16;;;;;;;15.70;3.63;;;;;;;;;;5000370;28;20164;-78
2022/10/28 00:08:01;;;;;;;10.35;4.05;;;;;;;;;;4986104;28;20045;-76
2022/10/28 00:10:47;;;;;;;11.48;3.92;;;;;;;;;;4960401;28;20022;-72
2022/10/28 00:13:32;;;;;;;8.85;3.95;;;;;;;;;;4968247;28;20042;-73
2022/10/28 00:16:19;;;;;;;9.73;3.60;;;;;;;;;;4971764;28;20511;-73
2022/10/28 00:19:05;;;;;;;14.52;3.30;;;;;;;;;;4968475;28;20432;-72
2022/10/28 00:21:50;;;;;;;8.98;3.70;;;;;;;;;;4997967;28;20054;-72
2022/10/28 00:24:36;;;;;;;8.70;3.22;;;;;;;;;;4957976;28;20027;-73
2022/10/28 00:27:21;;;;;;;6.72;3.13;;;;;;;;;;4968379;28;20026;-77
2022/10/28 00:30:06;;;;;;;7.30;3.78;;;;;;;;;;4971248;28;20033;-78
2022/10/28 00:32:51;;;;;;;9.35;3.20;;;;;;;;;;4995433;28;20039;-77
2022/10/28 00:35:37;;;;;;;10.52;3.70;;;;;;;;;;4985219;28;20389;-79
2022/10/28 00:38:22;;;;;;;10.88;4.00;;;;;;;;;;4985020;28;20022;-77
2022/10/28 00:41:08;;;;;;;17.40;3.78;;;;;;;;;;4988223;28;20038;-79
2022/10/28 00:43:54;;;;;;;8.43;3.88;;;;;;;;;;4990358;28;20097;-79
2022/10/28 00:46:44;;;;;;;8.85;3.17;;;;;;;;;;4988641;28;20037;-85
2022/10/28 00:49:31;;;;;;;16.10;3.90;;;;;;;;;;4988656;28;20088;-73
2022/10/28 00:52:22;;;;;;;10.32;4.03;;;;;;;;;;4989980;28;20689;-72
2022/10/28 00:55:08;;;;;;;9.27;4.22;;;;;;;;;;4975715;28;20490;-72
2022/10/28 00:57:55;;;;;;;9.50;3.53;;;;;;;;;;4989514;28;20030;-72
2022/10/28 01:00:40;;;;;;;12.57;4.20;;;;;;;;;;4989391;28;20096;-73
2022/10/28 01:03:25;;;;;;;10.15;3.60;;;;;;;;;;4988715;28;20035;-78
2022/10/28 01:06:11;;;;;;;16.80;3.88;;;;;;;;;;4989867;28;20477;-79
2022/10/28 01:08:56;;;;;;;9.95;3.45;;;;;;;;;;4977696;28;20049;-77
2022/10/28 01:11:41;;;;;;;13.35;3.45;;;;;;;;;;4981239;28;20023;-76
2022/10/28 01:14:42;;;;;;;13.15;4.07;;;;;;;;;;4971855;28;20030;-78
2022/10/28 01:17:43;;;;;;;10.93;3.25;;;;;;;;;;4988035;28;20029;-77
2022/10/28 01:20:28;;;;;;;9.30;3.20;;;;;;;;;;4974125;28;20038;-78
2022/10/28 01:23:32;;;;;;;10.68;3.15;;;;;;;;;;4987331;28;20073;-76
2022/10/28 01:26:20;;;;;;;11.98;3.92;;;;;;;;;;4974451;28;20034;-79
2022/10/28 01:29:24;;;;;;;15.00;3.90;;;;;;;;;;4988024;28;20076;-78
2022/10/28 01:32:32;;;;;;;12.57;4.38;;;;;;;;;;4987865;28;20033;-79
2022/10/28 01:35:36;;;;;;;11.18;3.72;;;;;;;;;;4981681;28;20034;-77
2022/10/28 01:38:27;;;;;;;11.38;4.13;;;;;;;;;;5000920;28;20050;-79
2022/10/28 01:41:12;;;;;;;11.50;3.70;;;;;;;;;;5001194;28;20026;-77
2022/10/28 01:44:05;;;;;;;17.10;4.97;;;;;;;;;;4974101;28;20040;-75
2022/10/28 01:47:10;;;;;;;11.73;4.10;;;;;;;;;;4986887;28;20057;-75
2022/10/28 01:49:59;;;;;;;11.65;3.33;;;;;;;;;;4983851;28;20505;-74
2022/10/28 01:52:45;;;;;;;10.35;4.25;;;;;;;;;;4960904;28;20046;-76
2022/10/28 01:55:41;;;;;;;5.43;3.25;;;;;;;;;;4983081;28;20088;-75
2022/10/28 01:58:28;;;;;;;14.38;4.53;;;;;;;;;;4969572;28;20088;-76
2022/10/28 02:01:14;;;;;;;9.48;3.35;;;;;;;;;;4969164;28;20073;-75
2022/10/28 02:04:00;;;;;;;11.00;3.50;;;;;;;;;;4984204;28;20042;-73
2022/10/28 02:06:46;;;;;;;12.95;3.90;;;;;;;;;;4988938;28;20433;-73
2022/10/28 02:09:37;;;;;;;8.23;3.65;;;;;;;;;;4969928;28;20030;-73
2022/10/28 02:12:22;;;;;;;15.57;5.07;;;;;;;;;;4988564;28;20030;-74
2022/10/28 02:15:07;;;;;;;12.23;3.78;;;;;;;;;;4987380;28;20074;-73
2022/10/28 02:18:12;;;;;;;9.48;3.10;;;;;;;;;;4985413;28;20101;-73
2022/10/28 02:20:57;;;;;;;10.68;3.72;;;;;;;;;;5002386;28;20026;-77
2022/10/28 02:23:49;;;;;;;12.55;4.03;;;;;;;;;;4985499;28;20105;-77
2022/10/28 02:26:36;;;;;;;8.75;3.55;;;;;;;;;;4993283;28;20074;-76
2022/10/28 02:29:30;;;;;;;7.55;3.30;;;;;;;;;;4988292;28;20674;-76
2022/10/28 02:32:19;;;;;;;6.90;3.38;;;;;;;;;;4988057;28;20023;-76
2022/10/28 02:35:06;;;;;;;9.68;4.15;;;;;;;;;;5000359;28;20034;-72
2022/10/28 02:37:52;;;;;;;13.85;4.97;;;;;;;;;;4973102;28;20041;-76
2022/10/28 02:40:38;;;;;;;10.82;3.88;;;;;;;;;;4987615;28;20511;-78
2022/10/28 02:43:24;;;;;;;9.93;3.47;;;;;;;;;;4964872;28;20066;-76
2022/10/28 02:46:11;;;;;;;9.85;3.38;;;;;;;;;;4988155;28;20646;-79
2022/10/28 02:48:59;;;;;;;8.55;3.67;;;;;;;;;;4987354;28;20057;-78
2022/10/28 02:51:53;;;;;;;11.50;3.20;;;;;;;;;;4987497;28;20026;-77
2022/10/28 02:54:57;;;;;;;8.93;3.60;;;;;;;;;;4971129;28;20041;-73
2022/10/28 02:57:46;;;;;;;9.25;3.78;;;;;;;;;;4979716;28;20054;-86
2022/10/28 03:00:32;;;;;;;10.35;3.72;;;;;;;;;;4987023;28;20034;-85
2022/10/28 03:03:17;;;;;;;8.95;3.45;;;;;;;;;;4985023;28;20122;-87
2022/10/28 03:06:02;;;;;;;14.80;4.25;;;;;;;;;;4976253;28;20122;-87
2022/10/28 03:08:47;;;;;;;13.68;4.60;;;;;;;;;;4988180;28;20037;-86
2022/10/28 03:11:33;;;;;;;9.15;3.72;;;;;;;;;;4989073;28;20061;-85
2022/10/28 03:14:18;;;;;;;7.72;3.05;;;;;;;;;;4985950;28;20540;-79
2022/10/28 03:17:03;;;;;;;13.48;3.58;;;;;;;;;;4973586;28;20022;-74
2022/10/28 03:19:48;;;;;;;11.15;3.88;;;;;;;;;;4987047;28;20034;-73
2022/10/28 03:22:34;;;;;;;14.68;4.70;;;;;;;;;;4986597;28;20063;-74
2022/10/28 03:25:19;;;;;;;7.75;3.05;;;;;;;;;;4966232;28;20044;-74
2022/10/28 03:28:04;;;;;;;12.50;4.00;;;;;;;;;;4971331;28;20022;-73
2022/10/28 03:30:49;;;;;;;11.15;3.38;;;;;;;;;;4984822;28;20124;-77
2022/10/28 03:33:35;;;;;;;11.55;3.40;;;;;;;;;;5000065;28;20048;-79
2022/10/28 03:36:20;;;;;;;28.20;4.03;;;;;;;;;;4985941;28;20497;-80
2022/10/28 03:39:05;;;;;;;9.68;3.35;;;;;;;;;;4987670;28;20096;-79
2022/10/28 03:41:50;;;;;;;6.63;3.65;;;;;;;;;;4969523;28;20328;-79
2022/10/28 03:44:36;;;;;;;12.48;3.35;;;;;;;;;;4971629;28;20023;-78
2022/10/28 03:47:21;;;;;;;10.48;3.35;;;;;;;;;;4984498;28;20076;-80
2022/10/28 03:50:06;;;;;;;13.30;4.15;;;;;;;;;;4976057;28;20061;-76
2022/10/28 03:52:52;;;;;;;9.57;3.95;;;;;;;;;;4960009;28;20350;-76
2022/10/28 03:55:37;;;;;;;7.07;3.00;;;;;;;;;;4988339;28;20121;-76
2022/10/28 03:58:22;;;;;;;10.68;4.38;;;;;;;;;;4976240;28;20630;-76
2022/10/28 04:01:08;;;;;;;9.98;3.50;;;;;;;;;;4982742;28;20026;-75
2022/10/28 04:03:53;;;;;;;10.23;4.20;;;;;;;;;;4982060;28;20030;-75
2022/10/28 04:06:38;;;;;;;14.07;4.22;;;;;;;;;;4988722;28;20026;-79
2022/10/28 04:09:24;;;;;;;13.90;4.47;;;;;;;;;;4989584;28;20026;-80
2022/10/28 04:12:09;;;;;;;9.32;3.53;;;;;;;;;;4978239;28;20027;-79
2022/10/28 04:14:55;;;;;;;8.88;3.80;;;;;;;;;;4999234;28;20045;-78
2022/10/28 04:17:40;;;;;;;8.13;3.20;;;;;;;;;;4985077;28;20030;-79
2022/10/28 04:20:25;;;;;;;11.30;4.25;;;;;;;;;;4972184;28;20433;-78
2022/10/28 04:23:15;;;;;;;13.50;3.78;;;;;;;;;;4970488;28;20057;-79
2022/10/28 04:26:00;;;;;;;16.63;3.90;;;;;;;;;;5002875;28;20089;-76
2022/10/28 04:28:45;;;;;;;11.18;3.97;;;;;;;;;;4986584;28;20085;-73
2022/10/28 04:31:30;;;;;;;11.50;4.20;;;;;;;;;;4970679;28;20018;-74
2022/10/28 04:34:16;;;;;;;11.48;3.95;;;;;;;;;;4980684;28;20035;-74
2022/10/28 04:37:01;;;;;;;8.23;3.70;;;;;;;;;;4966605;28;20061;-75
2022/10/28 04:39:46;;;;;;;12.75;4.05;;;;;;;;;;4976446;28;20108;-76
2022/10/28 04:42:32;;;;;;;16.20;3.83;;;;;;;;;;4995389;28;20556;-73
2022/10/28 04:45:17;;;;;;;11.00;3.70;;;;;;;;;;4973221;28;20042;-74
2022/10/28 04:48:02;;;;;;;10.10;4.20;;;;;;;;;;4983507;28;20666;-78
2022/10/28 04:50:47;;;;;;;9.68;3.55;;;;;;;;;;4983276;28;20038;-79
2022/10/28 04:53:33;;;;;;;12.48;3.90;;;;;;;;;;4984615;28;20462;-78
2022/10/28 04:56:18;;;;;;;12.45;5.22;;;;;;;;;;4984654;28;20026;-80
2022/10/28 04:59:03;;;;;;;9.65;4.13;;;;;;;;;;4971883;28;20397;-78
2022/10/28 05:01:48;;;;;;;12.15;4.20;;;;;;;;;;4985179;28;20032;-75
2022/10/28 05:04:34;;;;;;;17.02;4.50;;;;;;;;;;4984044;28;20417;-75
2022/10/28 05:07:19;;;;;;;9.88;4.25;;;;;;;;;;4973009;28;20023;-78
2022/10/28 05:10:04;;;;;;;11.35;3.33;;;;;;;;;;4983301;28;20421;-78
2022/10/28 05:12:49;;;;;;;11.93;4.15;;;;;;;;;;4987718;28;20026;-78
2022/10/28 05:15:35;;;;;;;9.10;3.55;;;;;;;;;;4987578;28;20462;-78
2022/10/28 05:18:20;;;;;;;9.80;3.63;;;;;;;;;;4987190;28;20470;-79
2022/10/28 05:21:05;;;;;;;24.77;5.30;;;;;;;;;;4964711;28;20030;-77
2022/10/28 05:23:51;;;;;;;16.08;4.63;;;;;;;;;;4975651;28;20184;-84
2022/10/28 05:26:36;;;;;;;18.83;4.32;;;;;;;;;;5004569;28;20038;-84
2022/10/28 05:29:21;;;;;;;9.07;3.53;;;;;;;;;;4998608;28;20077;-83
2022/10/28 05:32:06;;;;;;;11.20;4.32;;;;;;;;;;4984735;28;20050;-85
2022/10/28 05:34:52;;;;;;;9.75;4.50;;;;;;;;;;4992686;28;20045;-83
2022/10/28 05:37:37;;;;;;;13.77;4.25;;;;;;;;;;4990348;28;20036;-85
2022/10/28 05:40:22;;;;;;;8.98;3.40;;;;;;;;;;4990655;28;20030;-77
2022/10/28 05:43:08;;;;;;;9.73;3.50;;;;;;;;;;4990940;28;20041;-76
2022/10/28 05:45:54;;;;;;;9.45;3.70;;;;;;;;;;4990784;28;20037;-75
2022/10/28 05:48:39;;;;;;;9.88;3.78;;;;;;;;;;4987951;28;20041;-75
2022/10/28 05:51:24;;;;;;;8.98;4.00;;;;;;;;;;4976879;28;20064;-75
2022/10/28 05:54:10;;;;;;;11.18;4.50;;;;;;;;;;4984778;28;20473;-77
2022/10/28 05:56:55;;;;;;;11.18;3.65;;;;;;;;;;4974445;28;20062;-75
2022/10/28 05:59:40;;;;;;;11.27;4.15;;;;;;;;;;4978796;28;20449;-75
2022/10/28 06:02:25;;;;;;;14.20;4.93;;;;;;;;;;4985372;28;20033;-84
2022/10/28 06:05:11;;;;;;;7.78;3.25;;;;;;;;;;4965995;28;20466;-84
2022/10/28 06:07:56;;;;;;;11.82;4.07;;;;;;;;;;4992270;28;20026;-83
2022/10/28 06:10:48;;;;;;;9.45;3.53;;;;;;;;;;4982341;28;20560;-83
2022/10/28 06:13:33;;;;;;;16.48;4.15;;;;;;;;;;5002375;28;20110;-83
2022/10/28 06:16:18;;;;;;;13.55;3.67;;;;;;;;;;4989723;28;20054;-75
2022/10/28 06:19:04;;;;;;;12.00;4.32;;;;;;;;;;4991481;28;20025;-74
2022/10/28 06:21:49;;;;;;;12.25;3.88;;;;;;;;;;4990972;28;20465;-75
2022/10/28 06:24:34;;;;;;;10.02;4.35;;;;;;;;;;4991356;28;20113;-74
2022/10/28 06:27:19;;;;;;;10.45;4.07;;;;;;;;;;4990923;28;20022;-75
2022/10/28 06:30:05;;;;;;;15.18;4.57;;;;;;;;;;4983679;28;20073;-74
2022/10/28 06:32:50;;;;;;;10.45;3.67;;;;;;;;;;4982776;28;20018;-76
2022/10/28 06:35:35;;;;;;;12.73;3.88;;;;;;;;;;4977157;28;20482;-72
2022/10/28 06:38:21;;;;;;;11.38;4.28;;;;;;;;;;4977054;28;20109;-78
2022/10/28 06:41:06;;;;;;;11.90;4.50;;;;;;;;;;4991202;28;20038;-77
2022/10/28 06:43:51;;;;;;;10.73;3.72;;;;;;;;;;5004246;28;20030;-78
2022/10/28 06:46:36;;;;;;;10.95;4.03;;;;;;;;;;4990460;28;20026;-77
2022/10/28 06:49:22;;;;;;;16.23;4.22;;;;;;;;;;4990594;28;20473;-77
2022/10/28 06:52:07;;;;;;;13.75;4.05;;;;;;;;;;4977964;28;20065;-85
2022/10/28 06:54:52;;;;;;;9.73;3.60;;;;;;;;;;4990823;28;20462;-85
2022/10/28 06:57:37;;;;;;;7.85;3.72;;;;;;;;;;4986424;28;20120;-76
2022/10/28 07:00:22;;;;;;;14.45;4.20;;;;;;;;;;4977669;28;20050;-77
2022/10/28 07:03:08;;;;;;;9.00;3.17;;;;;;;;;;4990461;28;20045;-77
2022/10/28 07:05:53;;;;;;;13.80;3.58;;;;;;;;;;4977404;28;20031;-76
2022/10/28 07:08:39;;;;;;;10.27;3.53;;;;;;;;;;5003975;28;20026;-76
2022/10/28 07:11:24;;;;;;;10.57;3.92;;;;;;;;;;4990564;28;20397;-77
2022/10/28 07:14:09;;;;;;;15.27;3.97;;;;;;;;;;4990049;28;20038;-77
2022/10/28 07:16:55;;;;;;;9.80;3.33;;;;;;;;;;5004267;28;20284;-75
2022/10/28 07:19:40;;;;;;;12.32;4.65;;;;;;;;;;5003123;28;20030;-76
2022/10/28 07:22:25;;;;;;;9.80;3.58;;;;;;;;;;4990114;28;20046;-76
2022/10/28 07:25:10;;;;;;;9.73;3.28;;;;;;;;;;4990031;28;20386;-76
2022/10/28 07:27:56;;;;;;;9.57;3.78;;;;;;;;;;4988517;28;20034;-74
2022/10/28 07:30:41;;;;;;;12.38;3.45;;;;;;;;;;4990122;28;20035;-75
2022/10/28 07:33:26;;;;;;;8.52;3.25;;;;;;;;;;4977093;28;20378;-84
2022/10/28 07:36:11;;;;;;;6.53;3.10;;;;;;;;;;4978564;28;20033;-84
2022/10/28 07:38:57;;;;;;;9.30;3.10;;;;;;;;;;4990560;28;20026;-84
2022/10/28 07:41:42;;;;;;;8.90;3.50;;;;;;;;;;4980623;28;20030;-85
2022/10/28 07:44:27;;;;;;;8.00;3.05;;;;;;;;;;5002167;28;20022;-85
2022/10/28 07:47:13;;;;;;;8.75;3.10;;;;;;;;;;4976069;28;20026;-85
2022/10/28 07:49:58;;;;;;;9.80;3.55;;;;;;;;;;4977264;28;20038;-73
2022/10/28 07:52:43;;;;;;;14.00;3.47;;;;;;;;;;4976114;28;20028;-73
2022/10/28 07:55:28;;;;;;;11.75;3.78;;;;;;;;;;4967138;28;20034;-73
2022/10/28 07:58:14;;;;;;;14.48;3.72;;;;;;;;;;4989791;28;20057;-74
2022/10/28 08:01:06;;;;;;;10.45;3.60;;;;;;;;;;4975819;28;20065;-73
2022/10/28 08:03:51;;;;;;;8.07;3.50;;;;;;;;;;4976655;28;20172;-73
2022/10/28 08:06:37;;;;;;;11.73;3.83;;;;;;;;;;4988834;28;20569;-78
2022/10/28 08:09:22;;;;;;;8.80;4.28;;;;;;;;;;4976077;28;20030;-73
2022/10/28 08:12:07;;;;;;;11.65;4.70;;;;;;;;;;4989426;28;20056;-73
2022/10/28 08:14:54;;;;;;;8.90;3.83;;;;;;;;;;5003256;28;20113;-72
2022/10/28 08:17:40;;;;;;;10.80;3.80;;;;;;;;;;4989311;28;20391;-74
2022/10/28 08:20:25;;;;;;;9.82;4.43;;;;;;;;;;4989689;28;20081;-73
2022/10/28 08:23:10;;;;;;;9.52;3.42;;;;;;;;;;4975358;28;20394;-73
2022/10/28 08:25:55;;;;;;;13.23;4.45;;;;;;;;;;4988794;28;20034;-76
2022/10/28 08:28:41;;;;;;;10.00;3.13;;;;;;;;;;4988798;28;20041;-77
2022/10/28 08:31:26;;;;;;;11.60;4.80;;;;;;;;;;4978531;28;20038;-76
2022/10/28 08:34:11;;;;;;;10.73;3.70;;;;;;;;;;4988098;28;20061;-76
2022/10/28 08:36:56;;;;;;;11.32;4.03;;;;;;;;;;4980274;28;20038;-77
2022/10/28 08:39:42;;;;;;;10.65;3.30;;;;;;;;;;4988230;28;20110;-76
2022/10/28 08:42:41;;;;;;;13.65;3.80;;;;;;;;;;4986063;28;20014;-77
2022/10/28 08:45:35;;;;;;;10.90;4.32;;;;;;;;;;4989493;28;20030;-79
2022/10/28 08:48:26;;;;;;;8.27;3.58;;;;;;;;;;4989389;28;20030;-86
2022/10/28 08:51:15;;;;;;;13.88;4.22;;;;;;;;;;4975698;28;20366;-85
2022/10/28 08:54:03;;;;;;;9.60;4.10;;;;;;;;;;5002513;28;20506;-85
2022/10/28 08:56:50;;;;;;;18.23;4.03;;;;;;;;;;4975692;28;20647;-84
2022/10/28 08:59:37;;;;;;;11.98;3.67;;;;;;;;;;4989328;28;20038;-84
2022/10/28 09:02:23;;;;;;;11.70;3.60;;;;;;;;;;5003855;28;20109;-75
2022/10/28 09:05:24;;;;;;;9.20;3.22;;;;;;;;;;4993046;28;20546;-74
2022/10/28 09:08:21;;;;;;;15.15;4.80;;;;;;;;;;4991858;28;20423;-75
2022/10/28 09:11:09;;;;;;;7.38;2.97;;;;;;;;;;4973283;28;20540;-75
2022/10/28 09:14:05;;;;;;;9.40;3.88;;;;;;;;;;4994606;28;20042;-74
2022/10/28 09:16:57;;;;;;;14.82;4.10;;;;;;;;;;4992809;28;20038;-76
2022/10/28 09:19:56;;;;;;;14.48;4.68;;;;;;;;;;5005981;28;20030;-73
2022/10/28 09:22:47;;;;;;;8.68;3.17;;;;;;;;;;4979418;28;20069;-75
2022/10/28 09:25:48;;;;;;;9.07;3.03;;;;;;;;;;5005795;28;20539;-76
2022/10/28 09:28:43;;;;;;;11.70;3.28;;;;;;;;;;5008093;28;20048;-74
2022/10/28 09:31:40;;;;;;;8.45;3.47;;;;;;;;;;5005852;28;20433;-74
2022/10/28 09:34:25;;;;;;;7.55;3.53;;;;;;;;;;4978670;28;20062;-74
2022/10/28 09:37:28;;;;;;;14.60;4.47;;;;;;;;;;4991043;28;20030;-75
2022/10/28 09:40:24;;;;;;;15.20;5.25;;;;;;;;;;4988021;28;20034;-74
2022/10/28 09:43:09;;;;;;;9.55;3.70;;;;;;;;;;4979111;28;20109;-77
2022/10/28 09:45:57;;;;;;;11.48;3.55;;;;;;;;;;5005548;28;20209;-77
2022/10/28 09:48:50;;;;;;;9.40;3.03;;;;;;;;;;4979073;28;20026;-77
2022/10/28 09:51:42;;;;;;;12.48;3.22;;;;;;;;;;4978722;28;20437;-77
2022/10/28 09:54:31;;;;;;;5.53;2.17;;;;;;;;;;5001804;28;20039;-77
2022/10/28 09:57:16;;;;;;;8.57;3.97;;;;;;;;;;4978871;28;20026;-76
2022/10/28 10:00:02;;;;;;;9.70;3.22;;;;;;;;;;4991049;28;20137;-78
2022/10/28 10:02:48;;;;;;;8.63;3.15;;;;;;;;;;4991803;28;20133;-79
2022/10/28 10:05:37;;;;;;;13.25;3.10;;;;;;;;;;4989777;28;20030;-78
2022/10/28 10:08:23;;;;;;;8.40;2.97;;;;;;;;;;4992242;28;20116;-78
2022/10/28 10:11:34;;;;;;;8.45;3.10;;;;;;;;;;4991759;28;20768;-77
2022/10/28 10:14:24;;;;;;;9.85;3.15;;;;;;;;;;4979460;28;20026;-78
2022/10/28 10:17:15;;;;;;;6.90;2.70;;;;;;;;;;4991327;28;20125;-78
2022/10/28 10:20:03;;;;;;;7.72;2.90;;;;;;;;;;5006155;28;20366;-87
2022/10/28 10:22:48;;;;;;;8.18;2.70;;;;;;;;;;4991653;28;20046;-86
2022/10/28 10:25:34;;;;;;;10.50;3.25;;;;;;;;;;4981122;28;20045;-87
2022/10/28 10:28:20;;;;;;;11.00;2.60;;;;;;;;;;4985594;28;20022;-86
2022/10/28 10:31:06;;;;;;;11.40;3.50;;;;;;;;;;4987968;28;20042;-86
2022/10/28 10:33:53;;;;;;;7.18;3.22;;;;;;;;;;4986643;28;20695;-75
2022/10/28 10:36:47;;;;;;;10.70;3.00;;;;;;;;;;4989769;28;20014;-79
2022/10/28 10:39:35;;;;;;;13.63;2.90;;;;;;;;;;4977074;28;20235;-79
2022/10/28 10:42:21;;;;;;;12.88;3.17;;;;;;;;;;4976724;28;20030;-79
2022/10/28 10:45:15;;;;;;;14.32;5.05;;;;;;;;;;4976840;28;20022;-78
2022/10/28 10:48:05;;;;;;;8.75;2.78;;;;;;;;;;5003282;28;20481;-79
2022/10/28 10:50:51;;;;;;;9.25;2.45;;;;;;;;;;4976925;28;20068;-81
2022/10/28 10:53:37;;;;;;;7.60;2.33;;;;;;;;;;4976580;28;20117;-73
2022/10/28 10:56:23;;;;;;;8.35;2.75;;;;;;;;;;4990965;28;20080;-78
2022/10/28 10:59:24;;;;;;;8.15;2.53;;;;;;;;;;4990775;28;20491;-77
2022/10/28 11:02:38;;;;;;;6.72;2.20;;;;;;;;;;5003896;28;20547;-78
2022/10/28 11:05:23;;;;;;;8.35;2.13;;;;;;;;;;4983756;28;20026;-79
2022/10/28 11:08:16;;;;;;;10.23;2.97;;;;;;;;;;4974068;28;20100;-77
2022/10/28 11:11:12;;;;;;;10.02;2.28;;;;;;;;;;4997474;28;20025;-78
2022/10/28 11:14:02;;;;;;;8.93;2.83;;;;;;;;;;4990144;28;20089;-77
2022/10/28 11:16:54;;;;;;;7.53;2.40;;;;;;;;;;4989933;28;20425;-77
2022/10/28 11:19:41;;;;;;;5.75;2.60;;;;;;;;;;4990202;28;20034;-77
2022/10/28 11:22:41;;;;;;;10.43;3.22;;;;;;;;;;4990234;28;20053;-77
2022/10/28 11:25:35;;;;;;;8.13;2.83;;;;;;;;;;4990290;28;20034;-79
2022/10/28 11:28:32;;;;;;;9.75;3.00;;;;;;;;;;4987898;28;20023;-78
2022/10/28 11:31:25;;;;;;;10.50;3.35;;;;;;;;;;4990345;28;20030;-76
2022/10/28 11:34:29;;;;;;;14.52;3.90;;;;;;;;;;4988010;28;20081;-85
2022/10/28 11:37:14;;;;;;;8.80;3.28;;;;;;;;;;4985384;28;20034;-86
2022/10/28 11:39:59;;;;;;;8.38;3.00;;;;;;;;;;4990356;28;20385;-86
2022/10/28 11:43:14;;;;;;;9.25;2.72;;;;;;;;;;5004432;28;20378;-85
2022/10/28 11:46:05;;;;;;;9.15;3.67;;;;;;;;;;4983854;28;20034;-86
2022/10/28 11:49:06;;;;;;;10.50;3.35;;;;;;;;;;5003421;28;20030;-78
2022/10/28 11:51:58;;;;;;;9.80;2.78;;;;;;;;;;4989349;28;20422;-77
2022/10/28 11:54:56;;;;;;;11.23;3.28;;;;;;;;;;4975182;28;20402;-76
2022/10/28 11:57:53;;;;;;;8.80;2.53;;;;;;;;;;4985544;28;20042;-79
2022/10/28 12:00:57;;;;;;;10.38;3.20;;;;;;;;;;4990101;28;20093;-76
2022/10/28 12:04:00;;;;;;;10.02;2.88;;;;;;;;;;4986708;28;20438;-77
2022/10/28 12:06:52;;;;;;;10.70;3.10;;;;;;;;;;4987602;28;20018;-85
2022/10/28 12:09:43;;;;;;;7.65;2.80;;;;;;;;;;4976178;28;20026;-86
2022/10/28 12:12:39;;;;;;;5.80;2.58;;;;;;;;;;4989703;28;20034;-86
2022/10/28 12:15:24;;;;;;;10.63;3.30;;;;;;;;;;4962777;28;20049;-85
2022/10/28 12:18:21;;;;;;;10.02;3.53;;;;;;;;;;4990346;28;20460;-84
2022/10/28 12:21:09;;;;;;;7.18;3.17;;;;;;;;;;4989314;28;20035;-85
2022/10/28 12:23:55;;;;;;;10.38;2.90;;;;;;;;;;4989145;28;20410;-75
2022/10/28 12:26:43;;;;;;;10.07;2.88;;;;;;;;;;5002537;28;20398;-76
2022/10/28 12:29:36;;;;;;;11.05;3.05;;;;;;;;;;4986514;28;20500;-75
2022/10/28 12:32:25;;;;;;;14.80;2.80;;;;;;;;;;4988772;28;20026;-76
2022/10/28 12:35:16;;;;;;;12.70;4.13;;;;;;;;;;4983690;28;20096;-75
2022/10/28 12:38:13;;;;;;;10.95;3.25;;;;;;;;;;4988424;28;20450;-75
2022/10/28 12:41:05;;;;;;;8.93;2.83;;;;;;;;;;4961897;28;20025;-74
2022/10/28 12:43:50;;;;;;;14.32;3.55;;;;;;;;;;4989649;28;20026;-78
2022/10/28 12:46:55;;;;;;;12.27;3.50;;;;;;;;;;5001940;28;20429;-76
2022/10/28 12:50:01;;;;;;;8.50;2.67;;;;;;;;;;5002107;28;20441;-76
2022/10/28 12:52:46;;;;;;;12.80;3.00;;;;;;;;;;4975547;28;20033;-78
2022/10/28 12:55:43;;;;;;;16.58;3.13;;;;;;;;;;4980246;28;20066;-77
2022/10/28 12:58:33;;;;;;;9.65;2.92;;;;;;;;;;4988122;28;20029;-78
2022/10/28 13:01:19;;;;;;;10.57;3.88;;;;;;;;;;4974469;28;20538;-72
2022/10/28 13:04:05;;;;;;;10.63;3.22;;;;;;;;;;4975829;28;20034;-73
2022/10/28 13:06:56;;;;;;;8.60;2.88;;;;;;;;;;4974837;28;20026;-74
2022/10/28 13:09:41;;;;;;;10.57;3.75;;;;;;;;;;4998760;28;20029;-73
2022/10/28 13:12:35;;;;;;;10.65;2.88;;;;;;;;;;5002216;28;20116;-74
2022/10/28 13:15:24;;;;;;;8.50;2.65;;;;;;;;;;4975260;28;20034;-73
2022/10/28 13:18:09;;;;;;;;;;;;;;;;;;5002846;28;20026;-73
2022/10/28 13:21:07;;;;;;;13.35;3.25;;;;;;;;;;4989229;28;20400;-76
2022/10/28 13:24:00;;;;;;;10.38;2.70;;;;;;;;;;4986546;28;20089;-85
2022/10/28 13:26:46;;;;;;;8.32;3.58;;;;;;;;;;4981608;28;20049;-86
2022/10/28 13:29:33;;;;;;;8.55;3.13;;;;;;;;;;4971859;28;20026;-85
2022/10/28 13:32:31;;;;;;;11.95;3.65;;;;;;;;;;4988721;28;20113;-85
2022/10/28 13:35:35;;;;;;;11.90;3.13;;;;;;;;;;4979391;28;20078;-85
2022/10/28 13:38:24;;;;;;;9.43;2.78;;;;;;;;;;4985484;28;20032;-76
2022/10/28 13:41:09;;;;;;;;;;;;;;;;;;4989326;28;20058;-74
2022/10/28 13:43:55;;;;;;;15.57;3.28;;;;;;;;;;4988411;28;19913;-74
2022/10/28 13:46:59;;;;;;;9.85;3.35;;;;;;;;;;4975392;28;20022;-75
2022/10/28 13:50:04;;;;;;;13.45;4.60;;;;;;;;;;5003550;28;20026;-74
2022/10/28 13:53:09;;;;;;;11.70;3.28;;;;;;;;;;5005756;28;20159;-75
2022/10/28 13:55:57;;;;;;;13.27;4.63;;;;;;;;;;5004554;28;20397;-75
2022/10/28 13:59:01;;;;;;;12.55;3.45;;;;;;;;;;4992180;28;20025;-77
2022/10/28 14:01:46;;;;;;;13.10;3.72;;;;;;;;;;4992778;28;20479;-76
2022/10/28 14:04:33;;;;;;;9.27;4.07;;;;;;;;;;4990784;28;20388;-76
2022/10/28 14:07:20;;;;;;;14.82;4.53;;;;;;;;;;4982584;28;20037;-77
2022/10/28 14:10:17;;;;;;;16.08;3.90;;;;;;;;;;4991184;28;20034;-76
2022/10/28 14:13:17;;;;;;;16.55;3.83;;;;;;;;;;4991697;28;20118;-78
2022/10/28 14:16:22;;;;;;;11.20;3.75;;;;;;;;;;4985497;28;20077;-76
2022/10/28 14:19:07;;;;;;;8.45;3.65;;;;;;;;;;5003629;28;20034;-78
2022/10/28 14:21:58;;;;;;;14.48;3.17;;;;;;;;;;4988594;28;20046;-77
2022/10/28 14:24:44;;;;;;;22.35;3.70;;;;;;;;;;4987022;28;20014;-76
2022/10/28 14:27:38;;;;;;;11.48;2.85;;;;;;;;;;5003770;28;20024;-76
2022/10/28 14:30:23;;;;;;;15.52;4.15;;;;;;;;;;4985257;28;20507;-78
2022/10/28 14:33:19;;;;;;;10.25;2.97;;;;;;;;;;4990836;28;20022;-74
2022/10/28 14:36:16;;;;;;;11.00;3.90;;;;;;;;;;5004330;28;20405;-78
2022/10/28 14:39:15;;;;;;;12.52;4.03;;;;;;;;;;4985203;28;20477;-78
2022/10/28 14:42:19;;;;;;;11.55;3.30;;;;;;;;;;4990971;28;20057;-77
2022/10/28 14:45:04;;;;;;;9.55;3.50;;;;;;;;;;4991556;28;20031;-78
2022/10/28 14:48:28;;;;;;;15.95;3.33;;;;;;;;;;4990492;28;20027;-77
2022/10/28 14:51:15;;;;;;;15.23;4.28;;;;;;;;;;4904463;29;20027;-84
2022/10/28 14:54:01;;;;;;;14.18;4.03;;;;;;;;;;4899096;29;20540;-75
2022/10/28 14:56:47;;;;;;;11.45;3.97;;;;;;;;;;4977431;28;20022;-75
2022/10/28 14:59:36;;;;;;;14.35;3.17;;;;;;;;;;4990484;28;20045;-75
2022/10/28 15:02:22;;;;;;;13.57;4.53;;;;;;;;;;4990532;28;20113;-75
2022/10/28 15:05:11;;;;;;;18.40;4.97;;;;;;;;;;4977434;28;20034;-75
2022/10/28 15:08:00;;;;;;;12.68;4.00;;;;;;;;;;4974730;28;20500;-77
2022/10/28 15:10:47;;;;;;;13.60;3.92;;;;;;;;;;4977431;28;20026;-72
2022/10/28 15:13:33;;;;;;;15.77;4.50;;;;;;;;;;4989466;28;20069;-75
2022/10/28 15:16:22;;;;;;;16.17;3.72;;;;;;;;;;4986746;28;20433;-75
2022/10/28 15:19:07;;;;;;;;;;;;;;;;;;4976850;28;20034;-75
2022/10/28 15:22:03;;;;;;;27.48;4.53;;;;;;;;;;4976485;28;20720;-74
2022/10/28 15:24:52;;;;;;;17.13;4.65;;;;;;;;;;4972436;28;20110;-73
2022/10/28 15:27:39;;;;;;;17.42;5.20;;;;;;;;;;4989878;28;20026;-75
2022/10/28 15:30:24;;;;;;;11.70;4.35;;;;;;;;;;4980414;28;20087;-79
2022/10/28 15:33:17;;;;;;;9.00;3.08;;;;;;;;;;4989846;28;20042;-78
2022/10/28 15:36:08;;;;;;;10.27;3.63;;;;;;;;;;4976291;28;20030;-78
2022/10/28 15:39:04;;;;;;;14.23;5.97;;;;;;;;;;4989677;28;20034;-77
2022/10/28 15:41:52;;;;;;;25.73;9.70;;;;;;;;;;4976687;28;20061;-77
2022/10/28 15:44:38;;;;;;;15.35;6.47;;;;;;;;;;4989154;28;20019;-79
2022/10/28 15:47:23;;;;;;;11.63;4.57;;;;;;;;;;4989969;28;20045;-74
2022/10/28 15:50:14;;;;;;;16.23;4.28;;;;;;;;;;5003387;28;20022;-75
2022/10/28 15:53:06;;;;;;;14.30;4.50;;;;;;;;;;5003495;28;20037;-76
2022/10/28 15:56:08;;;;;;;16.02;4.38;;;;;;;;;;4990145;28;20099;-79
2022/10/28 15:59:12;;;;;;;18.27;5.43;;;;;;;;;;4980519;28;20454;-77
2022/10/28 16:01:58;;;;;;;14.15;4.70;;;;;;;;;;4989673;28;20453;-78
2022/10/28 16:04:43;;;;;;;10.23;4.35;;;;;;;;;;4973641;28;20010;-76
2022/10/28 16:07:28;;;;;;;18.80;5.20;;;;;;;;;;4968914;28;20037;-84
2022/10/28 16:10:14;;;;;;;17.85;4.18;;;;;;;;;;4971292;28;20026;-84
2022/10/28 16:12:59;;;;;;;12.30;5.15;;;;;;;;;;4987047;28;20397;-86
2022/10/28 16:15:48;;;;;;;17.98;6.28;;;;;;;;;;4988839;28;20105;-86
2022/10/28 16:18:40;;;;;;;18.08;6.57;;;;;;;;;;5002015;28;20485;-84
2022/10/28 16:21:25;;;;;;;19.60;7.40;;;;;;;;;;4972959;28;20105;-85
2022/10/28 16:24:12;;;;;;;14.40;5.65;;;;;;;;;;4983959;28;20133;-84
2022/10/28 16:27:16;;;;;;;20.50;6.18;;;;;;;;;;4989216;28;20080;-75
2022/10/28 16:30:02;;;;;;;15.05;4.53;;;;;;;;;;4975658;28;20061;-74
2022/10/28 16:32:48;;;;;;;19.17;5.30;;;;;;;;;;4976222;28;20025;-76
2022/10/28 16:35:33;;;;;;;13.23;5.55;;;;;;;;;;4989076;28;20049;-73
2022/10/28 16:38:19;;;;;;;18.60;4.40;;;;;;;;;;4975930;28;20037;-75
2022/10/28 16:41:05;;;;;;;13.07;4.47;;;;;;;;;;4988967;28;20032;-76
2022/10/28 16:43:50;;;;;;;17.90;5.45;;;;;;;;;;4975855;28;20030;-77
2022/10/28 16:46:35;;;;;;;18.23;4.28;;;;;;;;;;4988006;28;20406;-75